Weather observations for the past three days for
Livermore, Livermore Municipal Airport
Metric (Imperial)
Date Time (pdt) Wind (kph) Vis. (km) Weather Sky Cond. Temperature (ºC) Relative Humidity Wind Chill (°C) Heat Index (°C) Pressure Precipitation (cm)
Air Dwpt 6 hour altimeter (cm) sea level (mb) 1 hr 3 hr 6 hr
Max. Min.
04 08:53 W 9 16.09 A Few Clouds FEW023 14.4 8.3 67% 76.12 1014.6
04 07:53 Calm 16.09 A Few Clouds FEW023 FEW060 11.7 7.8 77% 76.15 1014.9
04 06:53 W 6 16.09 Overcast BKN025 OVC032 11.1 7.8 80% 76.12 1014.6
04 05:53 W 9 16.09 A Few Clouds FEW036 10 7.2 83% 9 76.07 1014.1
04 04:53 W 7 16.09 Overcast BKN027 BKN036 OVC070 11.7 7.2 12.2 10 74% 76.1 1014.1
04 03:53 S 11 16.09 Overcast FEW025 OVC035 12.2 7.8 75% 76.1 1014.2
04 02:53 SW 11 16.09 Overcast OVC024 12.2 7.8 75% 76.07 1014.1
04 01:53 SW 7 16.09 Mostly Cloudy BKN023 11.1 8.3 83% 76.1 1014.2
04 00:53 W 11 16.09 Fair CLR 10.6 8.3 86% 76.12 1014.5
03 23:53 W 9 16.09 Fair CLR 10.6 7.8 83% 76.12 1014.5
03 22:53 W 13 16.09 Fair CLR 11.7 8.3 17.8 11.1 80% 76.1 1014.2
03 21:53 W 11 16.09 Overcast OVC038 12.8 7.8 72% 76.07 1013.9
03 20:53 W 24 16.09 Fair CLR 13.3 7.8 70% 76.02 1013.2
03 19:53 W 19 16.09 Partly Cloudy SCT027 SCT040 13.9 8.3 69% 75.97 1012.6
03 18:53 W 24 16.09 Partly Cloudy SCT040 15.6 7.2 58% 75.95 1012.1
03 17:53 W 22 16.09 A Few Clouds FEW040 17.2 7.8 54% 75.92 1012.1
03 16:53 W 28 16.09 Overcast OVC038 17.2 8.3 18.3 15.6 56% 75.9 1011.6
03 15:53 W 26 G 37 16.09 Mostly Cloudy BKN039 17.2 8.3 56% 75.92 1011.8
03 14:53 W 24 16.09 Mostly Cloudy SCT037 BKN047 17.8 8.3 54% 75.92 1012.0
03 13:53 W 24 16.09 Mostly Cloudy BKN037 17.8 7.8 52% 75.92 1012.0
03 12:53 W 22 16.09 Mostly Cloudy BKN034 17.2 7.8 54% 75.95 1012.3
03 11:53 W 22 16.09 Mostly Cloudy BKN034 16.1 8.3 60% 75.97 1012.6
03 10:53 W 19 16.09 Overcast SCT026 OVC036 15.6 7.8 17.2 12.2 60% 75.97 1012.6
03 09:53 SW 24 16.09 Mostly Cloudy FEW024 BKN033 15.6 8.3 62% 75.95 1012.3
03 08:53 SW 15 16.09 Overcast OVC030 13.9 8.3 69% 75.95 1012.4
03 07:53 SW 13 16.09 Overcast OVC024 13.3 8.3 72% 75.95 1012.1
03 06:53 W 13 16.09 Overcast OVC020 12.8 8.3 74% 75.87 1011.3
03 05:53 SW 11 16.09 Overcast OVC018 12.2 8.3 77% 75.84 1010.7
03 04:53 W 13 16.09 Overcast OVC018 12.2 8.3 12.8 12.2 77% 75.82 1010.7
03 03:53 W 15 16.09 Overcast OVC017 12.2 8.3 77% 75.84 1010.6
03 02:53 W 13 16.09 Overcast OVC017 12.2 8.9 80% 75.82 1010.6
03 01:53 W 13 16.09 Overcast OVC016 12.2 8.9 80% 75.84 1010.9
03 00:53 W 11 16.09 Overcast OVC015 12.2 8.9 80% 75.9 1011.5
02 23:53 W 11 16.09 Overcast OVC016 12.2 8.9 80% 75.9 1011.6
02 22:53 W 19 16.09 Overcast OVC017 12.2 8.9 17.8 12.2 80% 75.92 1011.9
02 21:53 W 11 16.09 Overcast OVC018 12.8 8.9 77% 75.95 1012.1
02 20:53 W 17 16.09 Mostly Cloudy BKN021 12.2 8.3 77% 75.9 1011.5
02 19:53 W 24 16.09 Fair CLR 12.8 8.3 74% 75.82 1010.7
02 18:53 W 20 16.09 Fair CLR 14.4 8.9 70% 75.82 1010.6
02 17:53 W 28 16.09 Fair CLR 16.1 9.4 65% 75.82 1010.6
02 16:53 W 28 16.09 Fair CLR 17.8 9.4 19.4 14.4 58% 75.82 1010.5
02 15:53 W 26 16.09 Fair CLR 18.3 9.4 56% 75.87 1011.1
02 14:53 NW 26 16.09 Fair CLR 18.3 10 59% 75.92 1011.8
02 13:53 W 22 G 33 16.09 Fair CLR 18.3 10 59% 75.97 1012.4
02 12:53 SW 15 16.09 Partly Cloudy SCT022 17.8 10 60% 76.02 1013.2
02 11:53 Calm 16.09 Overcast OVC018 16.7 10.6 67% 76.05 1013.5
02 10:53 W 17 16.09 Overcast OVC014 14.4 10.6 14.4 12.2 78% 76.05 1013.6
02 09:53 W 19 16.09 Overcast OVC014 13.9 10 78% 76.02 1013.3
02 08:53 W 15 9.66 Overcast OVC009 13.3 10 81% 76 1013.0
02 07:53 W 11 16.09 Overcast OVC009 12.8 10 83% 76 1012.8
02 06:53 W 13 16.09 Overcast OVC009 12.2 10 87% 75.97 1012.4
02 05:53 W 11 16.09 Overcast OVC009 12.2 9.4 83% 75.92 1011.9
02 04:53 W 11 16.09 Overcast OVC009 12.2 10 12.2 11.7 87% 75.92 1011.8
02 03:53 NW 11 16.09 Overcast OVC010 12.2 10 87% 75.95 1012.1
02 02:53 W 11 14.48 Overcast OVC009 12.2 10 87% 75.97 1012.4
02 01:53 W 9 16.09 Overcast OVC009 12.2 10 87% 76 1012.9
02 00:53 W 9 16.09 Overcast OVC009 12.2 10 87% 76.02 1013.1
01 23:53 NW 11 16.09 Mostly Cloudy BKN011 12.2 10 87% 76.02 1013.2
01 22:53 NW 11 16.09 Fair CLR 12.2 10 24.4 12.2 87% 76.02 1013.3
01 21:53 NW 13 16.09 Fair CLR 12.8 10 83% 76.02 1013.2
01 20:53 NW 17 16.09 Fair CLR 13.9 9.4 74% 75.95 1012.4
01 19:53 W 20 16.09 Fair CLR 15 10 72% 75.92 1011.8
01 18:53 NW 17 16.09 Fair CLR 18.3 10 59% 75.87 1011.3
01 17:53 W 24 16.09 Fair CLR 21.7 10 47% 75.87 1011.2
01 16:53 W 19 16.09 Fair CLR 24.4 10 25 17.8 40% 25 75.87 1011.2
01 15:53 NW 13 16.09 Fair CLR 24.4 11.1 43% 26 75.92 1011.9
01 14:53 W 17 16.09 Fair CLR 23.3 11.7 48% 76 1013.0
01 13:53 NW 13 16.09 Fair CLR 21.7 11.7 53% 76.05 1013.4
01 12:53 W 17 16.09 Fair CLR 20 10.6 55% 76.07 1013.9
01 11:53 NW 19 16.09 Fair CLR 19.4 10.6 57% 76.12 1014.5
01 10:53 NW 17 16.09 Fair CLR 17.8 10.6 17.8 11.1 63% 76.15 1015.1
01 09:53 W 13 16.09 Fair CLR 16.1 10 67% 76.15 1015.1
Date Time (pdt) Wind (kph) Vis. (km) Weather Sky Cond. Air Dwpt Max. Min. Relative Humidity Wind Chill (°C) Heat Index (°C) altimeter (cm) sea level (mb) 1 hr 3 hr 6 hr
6 hour
Temperature (ºC) Pressure Precipitation (cm)